createdAt,value
2022-08-02T00:03:27.062Z,21.74
2022-08-02T00:08:30.794Z,21.60
2022-08-02T00:13:32.328Z,21.59
2022-08-02T00:18:33.949Z,21.51
2022-08-02T00:24:03.359Z,21.41
2022-08-02T00:28:56.954Z,21.28
2022-08-02T00:34:27.748Z,21.24
2022-08-02T00:39:33.490Z,21.23
2022-08-02T00:44:37.204Z,21.18
2022-08-02T00:49:40.380Z,21.15
2022-08-02T00:54:44.409Z,21.07
2022-08-02T00:59:45.940Z,21.01
2022-08-02T01:04:47.371Z,20.94
2022-08-02T01:09:48.884Z,20.87
2022-08-02T01:14:52.348Z,20.82
2022-08-02T01:20:08.869Z,20.80
2022-08-02T01:25:28.482Z,20.73
2022-08-02T01:30:34.630Z,20.77
2022-08-02T01:35:51.030Z,20.90
2022-08-02T01:40:54.856Z,21.05
2022-08-02T01:46:02.347Z,21.11
2022-08-02T01:51:06.996Z,20.90
2022-08-02T01:56:09.448Z,20.60
2022-08-02T02:01:15.199Z,20.43
2022-08-02T02:06:21.679Z,20.41
2022-08-02T02:12:10.091Z,20.40
2022-08-02T02:16:47.990Z,20.32
2022-08-02T02:21:49.681Z,20.25
2022-08-02T02:26:52.475Z,20.23
2022-08-02T02:31:58.517Z,20.15
2022-08-02T02:37:07.221Z,20.16
2022-08-02T02:42:13.385Z,20.27
2022-08-02T02:47:18.947Z,20.34
2022-08-02T02:52:20.953Z,20.36
2022-08-02T02:57:23.124Z,20.38
2022-08-02T03:02:24.959Z,20.38
2022-08-02T03:07:27.192Z,20.42
2022-08-02T03:12:32.142Z,20.43
2022-08-02T03:17:44.684Z,20.43
2022-08-02T03:22:47.281Z,20.44
2022-08-02T03:27:48.766Z,20.48
2022-08-02T03:32:50.556Z,20.48
2022-08-02T03:37:55.905Z,20.45
2022-08-02T03:42:58.158Z,20.35
2022-08-02T03:48:01.023Z,20.29
2022-08-02T03:53:03.128Z,20.18
2022-08-02T03:58:05.067Z,20.10
2022-08-02T04:03:06.993Z,20.00
2022-08-02T04:08:35.446Z,19.96
2022-08-02T04:13:37.118Z,20.02
2022-08-02T04:18:51.539Z,20.06
2022-08-02T04:23:53.496Z,20.12
2022-08-02T04:28:55.783Z,20.36
2022-08-02T04:33:57.674Z,20.80
2022-08-02T04:38:59.312Z,21.21
2022-08-02T04:44:00.801Z,21.66
2022-08-02T04:49:05.049Z,23.24
2022-08-02T04:54:10.006Z,24.36
2022-08-02T04:59:12.598Z,24.08
2022-08-02T05:04:15.078Z,23.79
2022-08-02T05:09:16.573Z,23.98
2022-08-02T05:14:17.997Z,24.40
2022-08-02T05:19:19.416Z,24.57
2022-08-02T05:24:20.891Z,25.93
2022-08-02T05:29:23.323Z,28.51
2022-08-02T05:34:24.767Z,32.43
2022-08-02T05:39:26.279Z,34.85
2022-08-02T05:44:34.768Z,36.87
2022-08-02T05:49:36.322Z,38.26
2022-08-02T05:54:58.521Z,38.88
2022-08-02T06:00:03.676Z,38.80
2022-08-02T06:05:14.093Z,37.35
2022-08-02T06:10:19.363Z,37.89
2022-08-02T06:15:21.108Z,39.53
2022-08-02T06:20:24.246Z,40.75
2022-08-02T06:25:50.888Z,41.04
2022-08-02T06:30:49.100Z,41.76
2022-08-02T06:36:22.162Z,41.77
2022-08-02T06:41:25.884Z,42.83
2022-08-02T06:46:34.510Z,43.87
2022-08-02T06:51:51.514Z,43.72
2022-08-02T06:56:55.529Z,42.62
2022-08-02T07:01:59.876Z,42.08
2022-08-02T07:07:02.057Z,41.80
2022-08-02T07:12:04.151Z,42.65
2022-08-02T07:17:05.925Z,43.73
2022-08-02T07:22:07.412Z,44.85
2022-08-02T07:27:11.695Z,45.11
2022-08-02T07:32:21.926Z,45.38
2022-08-02T07:37:52.687Z,46.74
2022-08-02T07:42:56.443Z,48.19
2022-08-02T07:48:01.126Z,47.09
2022-08-02T07:53:02.949Z,45.99
2022-08-02T07:58:04.893Z,46.99
2022-08-02T08:03:06.417Z,47.49
2022-08-02T08:08:10.130Z,46.71
2022-08-02T08:13:15.923Z,45.09
2022-08-02T08:18:17.357Z,45.63
2022-08-02T08:23:18.994Z,46.19
2022-08-02T08:28:20.460Z,45.74
2022-08-02T08:33:21.973Z,44.72
2022-08-02T08:38:23.526Z,43.38
2022-08-02T08:43:27.636Z,44.10
2022-08-02T08:48:35.547Z,44.93
2022-08-02T08:53:43.653Z,46.38
2022-08-02T08:58:47.615Z,46.70
2022-08-02T09:03:49.532Z,45.04
2022-08-02T09:08:51.293Z,43.49
2022-08-02T09:13:54.474Z,42.61
2022-08-02T09:18:56.677Z,41.93
2022-08-02T09:23:58.386Z,43.04
2022-08-02T09:29:01.899Z,41.65
2022-08-02T09:34:03.567Z,40.30
2022-08-02T09:39:07.679Z,39.89
2022-08-02T09:44:15.541Z,40.54
2022-08-02T09:49:19.906Z,40.29
2022-08-02T09:54:25.994Z,39.22
2022-08-02T09:59:29.170Z,38.90
2022-08-02T10:04:34.462Z,39.15
2022-08-02T10:09:55.893Z,40.40
2022-08-02T10:14:59.109Z,39.86
2022-08-02T10:20:04.734Z,37.14
2022-08-02T10:25:08.281Z,37.33
2022-08-02T10:30:10.484Z,36.73
2022-08-02T10:35:25.792Z,35.42
2022-08-02T10:41:00.514Z,35.50
2022-08-02T10:46:40.777Z,34.88
2022-08-02T10:52:00.486Z,35.54
2022-08-02T10:57:04.272Z,35.97
2022-08-02T11:02:06.762Z,34.87
2022-08-02T11:07:19.178Z,34.02
2022-08-02T11:12:22.073Z,33.98
2022-08-02T11:17:25.163Z,34.82
2022-08-02T11:22:27.995Z,35.61
2022-08-02T11:27:31.270Z,35.51
2022-08-02T11:32:37.289Z,35.29
2022-08-02T11:37:41.305Z,34.91
2022-08-02T11:42:48.158Z,33.77
2022-08-02T11:47:54.557Z,34.24
2022-08-02T11:52:56.787Z,34.35
2022-08-02T11:58:07.762Z,34.47
2022-08-02T12:03:09.683Z,34.63
2022-08-02T12:08:11.212Z,34.39
2022-08-02T12:13:13.367Z,33.79
2022-08-02T12:18:37.066Z,33.63
2022-08-02T12:23:59.890Z,33.02
2022-08-02T12:29:02.797Z,33.28
2022-08-02T12:34:15.027Z,33.98
2022-08-02T12:39:19.484Z,34.43
2022-08-02T12:44:21.006Z,34.30
2022-08-02T12:49:22.566Z,34.55
2022-08-02T12:54:32.533Z,34.13
2022-08-02T12:59:41.058Z,33.55
2022-08-02T13:04:49.899Z,33.76
2022-08-02T13:10:03.255Z,34.19
2022-08-02T13:15:12.577Z,34.54
2022-08-02T13:20:29.231Z,34.74
2022-08-02T13:25:32.535Z,34.78
2022-08-02T13:30:34.606Z,34.51
2022-08-02T13:35:38.922Z,34.54
2022-08-02T13:41:06.401Z,34.05
2022-08-02T13:46:10.926Z,34.11
2022-08-02T13:51:14.940Z,34.04
2022-08-02T13:56:18.762Z,34.07
2022-08-02T14:01:20.314Z,34.19
2022-08-02T14:06:22.387Z,34.31
2022-08-02T14:11:23.911Z,34.19
2022-08-02T14:16:30.482Z,33.67
2022-08-02T14:21:46.507Z,33.33
2022-08-02T14:26:50.155Z,33.32
2022-08-02T14:31:51.695Z,33.46
2022-08-02T14:36:53.994Z,33.33
2022-08-02T14:42:00.850Z,32.72
2022-08-02T14:47:02.466Z,32.74
2022-08-02T14:52:04.239Z,32.88
2022-08-02T14:57:06.132Z,33.05
2022-08-02T15:02:10.263Z,32.40
2022-08-02T15:07:15.142Z,32.08
2022-08-02T15:12:18.875Z,32.15
2022-08-02T15:17:20.602Z,32.46
2022-08-02T15:22:22.226Z,32.63
2022-08-02T15:27:24.422Z,32.63
2022-08-02T15:32:26.378Z,32.64
2022-08-02T15:37:31.011Z,32.71
2022-08-02T15:42:32.646Z,32.65
2022-08-02T15:47:34.157Z,32.60
2022-08-02T15:52:36.078Z,32.65
2022-08-02T15:57:39.396Z,32.72
2022-08-02T16:02:41.137Z,32.70
2022-08-02T16:07:42.666Z,32.56
2022-08-02T16:12:44.322Z,32.17
2022-08-02T16:17:49.299Z,32.25
2022-08-02T16:22:58.427Z,32.16
2022-08-02T16:28:07.168Z,32.22
2022-08-02T16:33:09.828Z,32.24
2022-08-02T16:38:11.668Z,32.26
2022-08-02T16:43:13.226Z,32.18
2022-08-02T16:48:14.858Z,32.15
2022-08-02T16:53:30.595Z,32.15
2022-08-02T16:58:37.787Z,32.13
2022-08-02T17:03:56.770Z,32.09
2022-08-02T17:09:01.204Z,32.02
2022-08-02T17:14:02.673Z,31.93
2022-08-02T17:19:05.381Z,31.90
2022-08-02T17:24:09.217Z,31.88
2022-08-02T17:29:15.523Z,31.88
2022-08-02T17:34:26.954Z,31.86
2022-08-02T17:39:33.516Z,31.86
2022-08-02T17:44:38.261Z,31.85
2022-08-02T17:49:44.359Z,31.81
2022-08-02T17:54:52.835Z,31.75
2022-08-02T18:00:04.092Z,31.66
2022-08-02T18:05:11.626Z,31.52
2022-08-02T18:10:14.660Z,31.41
2022-08-02T18:15:17.741Z,31.25
2022-08-02T18:20:22.282Z,31.06
2022-08-02T18:25:37.908Z,30.85
2022-08-02T18:30:45.907Z,30.64
2022-08-02T18:35:47.891Z,30.45
2022-08-02T18:40:50.848Z,30.26
2022-08-02T18:46:07.118Z,30.09
2022-08-02T18:51:16.111Z,29.89
2022-08-02T18:56:24.178Z,29.72
2022-08-02T19:01:33.546Z,29.52
2022-08-02T19:06:36.323Z,29.36
2022-08-02T19:11:38.689Z,29.09
2022-08-02T19:16:43.229Z,28.73
2022-08-02T19:22:17.646Z,28.49
2022-08-02T19:27:13.921Z,28.26
2022-08-02T19:32:41.791Z,28.05
2022-08-02T19:37:42.198Z,27.83
2022-08-02T19:44:24.724Z,27.65
2022-08-02T19:48:13.543Z,27.53
2022-08-02T19:53:17.116Z,27.40
2022-08-02T19:58:18.566Z,27.21
2022-08-02T20:03:51.255Z,27.03
2022-08-02T20:08:53.205Z,26.84
2022-08-02T20:13:58.472Z,26.62
2022-08-02T20:19:04.018Z,26.31
2022-08-02T20:24:06.899Z,26.04
2022-08-02T20:29:08.764Z,25.83
2022-08-02T20:34:10.569Z,25.73
2022-08-02T20:39:12.002Z,25.71
2022-08-02T20:44:15.778Z,25.56
2022-08-02T20:49:41.493Z,25.39
2022-08-02T20:54:43.441Z,25.23
2022-08-02T20:59:51.910Z,25.14
2022-08-02T21:04:55.100Z,25.06
2022-08-02T21:09:57.192Z,24.95
2022-08-02T21:14:59.622Z,24.86
2022-08-02T21:20:01.324Z,24.78
2022-08-02T21:25:09.107Z,24.62
2022-08-02T21:30:11.080Z,24.40
2022-08-02T21:35:14.898Z,24.22
2022-08-02T21:40:16.623Z,24.09
2022-08-02T21:45:19.988Z,23.97
2022-08-02T21:50:21.822Z,23.79
2022-08-02T21:55:24.449Z,23.69
2022-08-02T22:00:44.788Z,23.57
2022-08-02T22:05:47.225Z,23.51
2022-08-02T22:11:01.829Z,23.45
2022-08-02T22:16:05.659Z,23.36
2022-08-02T22:21:14.260Z,23.26
2022-08-02T22:26:15.992Z,23.16
2022-08-02T22:31:40.393Z,23.07
2022-08-02T22:36:44.094Z,22.98
2022-08-02T22:42:06.221Z,22.88
2022-08-02T22:47:14.923Z,22.70
2022-08-02T22:52:18.396Z,22.53
2022-08-02T22:57:30.698Z,22.44
2022-08-02T23:02:33.140Z,22.36
2022-08-02T23:07:36.220Z,22.28
2022-08-02T23:12:42.159Z,22.20
2022-08-02T23:18:04.106Z,22.16
2022-08-02T23:23:11.620Z,22.09
2022-08-02T23:28:13.354Z,22.01
2022-08-02T23:33:16.180Z,21.98
2022-08-02T23:38:18.235Z,21.93
2022-08-02T23:43:19.673Z,21.87
2022-08-02T23:48:21.088Z,21.81
2022-08-02T23:53:22.570Z,21.70
2022-08-02T23:58:24.065Z,21.63
